Time;durP1;ratioP1;P1;durP2;ratioP2;P2;SDS_P1;SDS_P2;PMS_P1;PMS_P2;Temp;Humidity;BMP_temperature;BMP_pressure;BME280_temperature;BME280_humidity;BME280_pressure;Samples;Min_cycle;Max_cycle;Signal;HPM_P1;HPM_P2
2022/04/16 00:00:01;;;;;;;2.00;1.70;;;21.60;41.70;;;;;;5041286;27;89903;-71
2022/04/16 00:02:29;;;;;;;4.33;2.10;;;21.60;41.60;;;;;;5041184;27;89210;-71
2022/04/16 00:04:58;;;;;;;2.63;2.10;;;21.50;41.60;;;;;;5057299;27;88405;-71
2022/04/16 00:07:27;;;;;;;2.90;2.07;;;21.50;41.60;;;;;;5061944;27;88474;-71
2022/04/16 00:09:55;;;;;;;3.57;2.10;;;21.50;41.60;;;;;;5061831;27;92499;-71
2022/04/16 00:12:24;;;;;;;2.50;2.03;;;21.50;41.60;;;;;;5061252;27;89464;-71
2022/04/16 00:14:52;;;;;;;2.20;1.97;;;21.50;41.60;;;;;;5062098;27;88287;-71
2022/04/16 00:17:20;;;;;;;5.03;2.33;;;21.60;41.70;;;;;;5047087;27;88642;-71
2022/04/16 00:19:48;;;;;;;2.23;1.83;;;21.60;42.10;;;;;;5040418;27;89682;-71
2022/04/16 00:22:17;;;;;;;3.03;2.10;;;21.60;41.70;;;;;;5041087;28;90061;-71
2022/04/16 00:24:50;;;;;;;3.43;1.90;;;21.50;41.60;;;;;;5039027;27;89794;-71
2022/04/16 00:27:18;;;;;;;6.57;2.23;;;21.50;41.70;;;;;;5040834;28;89138;-71
2022/04/16 00:29:46;;;;;;;3.37;2.20;;;21.50;41.70;;;;;;5039314;28;90101;-71
2022/04/16 00:32:19;;;;;;;2.50;2.23;;;21.50;41.60;;;;;;5039117;28;91909;-71
2022/04/16 00:34:47;;;;;;;2.33;2.13;;;21.50;41.60;;;;;;5040406;27;88871;-71
2022/04/16 00:37:15;;;;;;;3.10;2.20;;;21.40;41.60;;;;;;5040079;28;88541;-71
2022/04/16 00:39:43;;;;;;;2.67;2.17;;;21.40;41.60;;;;;;5041051;28;90022;-71
2022/04/16 00:42:13;;;;;;;2.70;2.40;;;21.40;41.60;;;;;;5040677;27;88986;-71
2022/04/16 00:44:41;;;;;;;3.58;2.35;;;21.30;41.60;;;;;;5041634;27;88822;-71
2022/04/16 00:47:09;;;;;;;2.93;2.23;;;21.30;41.60;;;;;;5039872;28;88436;-71
2022/04/16 00:49:37;;;;;;;6.33;2.47;;;21.30;41.60;;;;;;5038887;27;89731;-71
2022/04/16 00:52:06;;;;;;;2.70;2.17;;;21.20;41.50;;;;;;5039132;28;92597;-71
2022/04/16 00:54:34;;;;;;;3.67;2.53;;;21.20;41.50;;;;;;5040535;27;88980;-71
2022/04/16 00:57:02;;;;;;;2.93;2.27;;;21.20;41.60;;;;;;5040772;27;88438;-71
2022/04/16 00:59:31;;;;;;;3.67;2.20;;;21.20;41.60;;;;;;5039747;27;90533;-69
2022/04/16 01:02:00;;;;;;;2.27;2.07;;;21.20;41.60;;;;;;5039566;27;90108;-69
2022/04/16 01:04:28;;;;;;;2.47;1.83;;;21.20;41.60;;;;;;5040357;28;88811;-71
2022/04/16 01:06:56;;;;;;;2.37;1.90;;;21.30;41.70;;;;;;5040461;28;88482;-71
2022/04/16 01:09:24;;;;;;;1.73;1.63;;;21.30;41.70;;;;;;5039984;28;90671;-70
2022/04/16 01:11:52;;;;;;;5.43;2.33;;;21.40;41.80;;;;;;5051721;27;90264;-71
2022/04/16 01:14:21;;;;;;;3.33;2.03;;;21.40;41.80;;;;;;5042705;27;90904;-70
2022/04/16 01:16:52;;;;;;;7.43;2.13;;;21.50;41.90;;;;;;5039543;28;88388;-71
2022/04/16 01:19:24;;;;;;;3.07;2.00;;;21.40;41.90;;;;;;5039882;27;89554;-70
2022/04/16 01:21:53;;;;;;;3.30;1.90;;;21.50;41.90;;;;;;5039633;27;89099;-71
2022/04/16 01:24:22;;;;;;;3.67;2.20;;;21.50;41.90;;;;;;5040158;28;88392;-71
2022/04/16 01:26:51;;;;;;;2.90;1.70;;;21.50;41.90;;;;;;5040047;28;88515;-71
2022/04/16 01:29:20;;;;;;;3.23;1.63;;;21.50;41.90;;;;;;5051824;27;92526;-71
2022/04/16 01:31:48;;;;;;;4.27;2.07;;;21.50;41.90;;;;;;5039059;28;90069;-71
2022/04/16 01:34:17;;;;;;;3.73;2.10;;;21.50;41.90;;;;;;5039577;27;88636;-71
2022/04/16 01:36:45;;;;;;;1.87;1.77;;;21.50;41.90;;;;;;5039719;28;88847;-71
2022/04/16 01:39:13;;;;;;;2.73;2.20;;;21.50;41.90;;;;;;5040154;28;89479;-70
2022/04/16 01:41:42;;;;;;;2.60;2.20;;;21.50;41.80;;;;;;5038726;27;89201;-71
2022/04/16 01:44:11;;;;;;;4.13;2.30;;;21.50;41.80;;;;;;5046434;27;88818;-71
2022/04/16 01:46:39;;;;;;;3.83;2.43;;;21.40;41.70;;;;;;5040069;28;88312;-71
2022/04/16 01:49:10;;;;;;;3.57;2.53;;;21.40;41.70;;;;;;5039371;28;90646;-70
2022/04/16 01:51:38;;;;;;;2.77;2.40;;;21.30;41.70;;;;;;5039713;28;92863;-71
2022/04/16 01:54:06;;;;;;;4.03;2.50;;;21.30;41.80;;;;;;5040216;28;88428;-71
2022/04/16 01:56:34;;;;;;;2.67;2.20;;;21.20;41.70;;;;;;5039481;28;88410;-71
2022/04/16 01:59:03;;;;;;;3.00;2.10;;;21.30;41.80;;;;;;5038553;27;89584;-70
2022/04/16 02:01:32;;;;;;;2.87;2.67;;;21.30;41.80;;;;;;5039295;27;90145;-71
2022/04/16 02:04:00;;;;;;;2.93;2.30;;;21.20;41.70;;;;;;5039327;27;89259;-71
2022/04/16 02:06:28;;;;;;;2.73;2.50;;;21.20;42.40;;;;;;5039294;27;88699;-71
2022/04/16 02:08:56;;;;;;;5.57;2.90;;;21.10;41.70;;;;;;5039300;27;90622;-71
2022/04/16 02:11:24;;;;;;;3.20;2.30;;;21.10;41.70;;;;;;5042702;27;91186;-71
2022/04/16 02:13:52;;;;;;;3.67;2.13;;;21.00;41.70;;;;;;5042824;28;91605;-70
2022/04/16 02:16:21;;;;;;;6.77;2.90;;;21.00;41.70;;;;;;5042926;27;88617;-70
2022/04/16 02:18:51;;;;;;;4.20;2.50;;;21.00;41.80;;;;;;5043097;27;90469;-71
2022/04/16 02:21:22;;;;;;;2.80;2.50;;;20.90;41.70;;;;;;5042207;28;90208;-71
2022/04/16 02:23:52;;;;;;;3.47;2.60;;;20.90;41.80;;;;;;5042350;27;88340;-71
2022/04/16 02:26:20;;;;;;;2.90;2.57;;;20.80;41.70;;;;;;5042214;27;88626;-71
2022/04/16 02:28:49;;;;;;;5.53;2.90;;;20.80;41.70;;;;;;5042596;28;89269;-70
2022/04/16 02:31:17;;;;;;;3.10;2.27;;;20.70;41.70;;;;;;5043694;28;89657;-70
2022/04/16 02:33:46;;;;;;;5.30;2.97;;;20.70;41.70;;;;;;5042711;27;88988;-70
2022/04/16 02:36:14;;;;;;;3.63;2.77;;;20.60;41.60;;;;;;5043692;27;88372;-70
2022/04/16 02:38:42;;;;;;;5.27;2.53;;;20.60;41.60;;;;;;5042923;28;90579;-70
2022/04/16 02:41:10;;;;;;;4.07;2.33;;;20.60;41.70;;;;;;5041819;27;88992;-71
2022/04/16 02:43:38;;;;;;;2.77;2.47;;;20.60;41.70;;;;;;5042804;27;89931;-70
2022/04/16 02:48:53;;;;;;;4.53;2.60;;;20.60;41.60;;;;;;5042218;27;89650;-71
2022/04/16 02:51:21;;;;;;;3.07;2.20;;;20.60;41.60;;;;;;5041170;28;89397;-70
2022/04/16 02:53:50;;;;;;;4.53;2.67;;;20.60;41.60;;;;;;5041749;28;89865;-70
2022/04/16 02:56:18;;;;;;;3.00;2.10;;;20.60;41.60;;;;;;5042523;28;88486;-70
2022/04/16 02:58:46;;;;;;;3.47;2.70;;;20.50;41.50;;;;;;5041940;27;89650;-70
2022/04/16 03:01:15;;;;;;;3.07;2.40;;;20.50;41.50;;;;;;5042378;27;88379;-71
2022/04/16 03:03:43;;;;;;;2.93;2.27;;;20.50;41.50;;;;;;5042280;28;88564;-71
2022/04/16 03:06:12;;;;;;;6.30;2.50;;;20.50;41.50;;;;;;5042478;28;88483;-70
2022/04/16 03:08:40;;;;;;;3.70;2.40;;;20.50;41.50;;;;;;5040750;28;89579;-70
2022/04/16 03:11:08;;;;;;;3.10;1.90;;;20.50;41.50;;;;;;5041778;28;91750;-71
2022/04/16 03:13:36;;;;;;;2.40;2.20;;;20.50;41.50;;;;;;5041612;28;88413;-71
2022/04/16 03:18:50;;;;;;;2.13;1.93;;;20.60;41.50;;;;;;5041670;28;90460;-71
2022/04/16 03:21:20;;;;;;;3.03;2.17;;;20.70;41.50;;;;;;5041692;27;89055;-70
2022/04/16 03:23:48;;;;;;;1.70;1.60;;;20.70;41.50;;;;;;5041650;27;88380;-70
2022/04/16 03:26:17;;;;;;;2.17;1.97;;;20.70;41.40;;;;;;5041501;27;88598;-71
2022/04/16 03:28:47;;;;;;;2.17;2.00;;;20.70;41.50;;;;;;5041821;28;93179;-71
2022/04/16 03:31:15;;;;;;;2.20;2.00;;;20.70;41.50;;;;;;5032721;28;89695;-71
2022/04/16 03:33:43;;;;;;;2.37;1.80;;;20.80;41.50;;;;;;5040773;27;88444;-71
2022/04/16 03:36:11;;;;;;;2.83;2.17;;;20.80;41.40;;;;;;5038478;28;88461;-70
2022/04/16 03:38:40;;;;;;;3.10;2.30;;;20.80;41.40;;;;;;5041740;27;90231;-70
2022/04/16 03:41:08;;;;;;;2.77;2.23;;;20.80;41.30;;;;;;5033190;28;90152;-71
2022/04/16 03:43:36;;;;;;;4.43;2.50;;;20.90;41.50;;;;;;5040796;27;88857;-71
2022/04/16 03:46:04;;;;;;;5.13;2.83;;;20.80;41.30;;;;;;5041599;28;88874;-70
2022/04/16 03:48:32;;;;;;;2.93;1.93;;;20.80;41.30;;;;;;5041134;27;90739;-71
2022/04/16 03:51:00;;;;;;;3.10;2.10;;;20.80;42.00;;;;;;5040951;28;90641;-70
2022/04/16 03:53:28;;;;;;;3.30;2.20;;;20.80;41.40;;;;;;5041168;28;88971;-70
2022/04/16 04:01:40;;;;;;;3.00;2.40;;;20.80;41.30;;;;;;5038930;28;89984;-70
2022/04/16 04:04:10;;;;;;;4.50;2.43;;;20.70;41.20;;;;;;5039141;27;88691;-70
2022/04/16 04:06:40;;;;;;;3.20;2.40;;;20.70;41.20;;;;;;5039230;27;89165;-70
2022/04/16 04:09:08;;;;;;;2.80;2.13;;;20.70;41.20;;;;;;5042058;27;90089;-71
2022/04/16 04:11:37;;;;;;;3.05;2.20;;;20.70;41.20;;;;;;5039897;27;90357;-71
2022/04/16 04:14:05;;;;;;;3.33;2.47;;;20.60;41.40;;;;;;5041306;27;88661;-71
2022/04/16 04:16:33;;;;;;;2.77;2.50;;;20.80;42.00;;;;;;5040932;28;88510;-71
2022/04/16 04:19:02;;;;;;;4.00;2.50;;;20.80;41.30;;;;;;5040001;27;93596;-70
2022/04/16 04:21:30;;;;;;;2.50;2.00;;;20.70;41.20;;;;;;5041010;27;88970;-71
2022/04/16 04:23:58;;;;;;;3.47;2.50;;;20.70;41.20;;;;;;5041291;28;88733;-71
2022/04/16 04:26:26;;;;;;;3.43;2.30;;;20.60;41.20;;;;;;5040404;27;88683;-71
2022/04/16 04:28:55;;;;;;;5.00;3.03;;;20.50;41.20;;;;;;5040560;28;90768;-71
2022/04/16 04:31:23;;;;;;;4.40;2.97;;;20.50;41.20;;;;;;5032076;27;89092;-71
2022/04/16 04:33:55;;;;;;;4.37;3.03;;;20.50;41.20;;;;;;5037445;27;89448;-71
2022/04/16 04:36:25;;;;;;;4.00;3.10;;;20.50;41.20;;;;;;5039766;28;88496;-71
2022/04/16 04:38:53;;;;;;;5.10;3.43;;;20.40;41.30;;;;;;5039462;27;89544;-71
2022/04/16 04:41:21;;;;;;;4.77;3.37;;;20.40;41.30;;;;;;5037236;28;90009;-71
2022/04/16 04:43:49;;;;;;;3.57;2.80;;;20.30;41.20;;;;;;5039557;27;88483;-71
2022/04/16 04:46:19;;;;;;;4.13;2.70;;;20.30;41.30;;;;;;5039482;27;88691;-71
2022/04/16 04:48:47;;;;;;;4.93;3.27;;;20.20;41.30;;;;;;5039318;27;88591;-71
2022/04/16 04:51:15;;;;;;;4.00;3.13;;;20.20;41.30;;;;;;5039033;28;93031;-71
2022/04/16 04:53:43;;;;;;;8.90;3.10;;;20.10;41.30;;;;;;5039852;28;89161;-71
2022/04/16 04:56:11;;;;;;;5.23;3.50;;;20.10;41.30;;;;;;5040344;28;88492;-71
2022/04/16 04:58:39;;;;;;;5.87;3.40;;;20.10;41.30;;;;;;5039195;28;89322;-71
2022/04/16 05:01:07;;;;;;;4.33;3.40;;;20.10;41.40;;;;;;5036175;28;89178;-71
2022/04/16 05:03:36;;;;;;;4.83;3.30;;;20.00;41.30;;;;;;5040104;28;89101;-71
2022/04/16 05:06:04;;;;;;;3.77;3.00;;;20.10;41.40;;;;;;5039830;27;88700;-72
2022/04/16 05:08:32;;;;;;;4.97;2.97;;;20.10;41.40;;;;;;5038041;28;90788;-71
2022/04/16 05:11:00;;;;;;;3.40;3.00;;;20.10;41.30;;;;;;5038559;28;90033;-71
2022/04/16 05:13:28;;;;;;;5.80;3.03;;;20.20;41.30;;;;;;5041831;28;88680;-71
2022/04/16 05:15:56;;;;;;;4.40;2.97;;;20.30;41.30;;;;;;5039818;27;88618;-70
2022/04/16 05:18:29;;;;;;;4.10;2.60;;;20.30;41.30;;;;;;5036909;28;90713;-70
2022/04/16 05:20:59;;;;;;;4.93;2.90;;;20.30;41.20;;;;;;5040156;28;88801;-71
2022/04/16 05:23:27;;;;;;;3.73;2.50;;;20.40;41.30;;;;;;5040087;28;93230;-71
2022/04/16 05:25:55;;;;;;;4.17;3.10;;;20.40;41.20;;;;;;5047511;27;88503;-71
2022/04/16 05:28:22;;;;;;;4.80;2.73;;;20.50;41.90;;;;;;5040430;28;93656;-71
2022/04/16 05:30:54;;;;;;;3.70;2.50;;;20.50;41.20;;;;;;5039745;27;90132;-71
2022/04/16 05:36:09;;;;;;;4.93;3.07;;;20.60;41.20;;;;;;5039716;27;88502;-63
2022/04/16 05:38:37;;;;;;;4.67;2.80;;;20.60;41.20;;;;;;5041268;28;89540;-65
2022/04/16 05:41:05;;;;;;;3.10;2.77;;;20.60;41.20;;;;;;5046326;27;89983;-65
2022/04/16 05:43:33;;;;;;;13.27;3.23;;;20.70;41.50;;;;;;5022293;27;88211;-67
2022/04/16 05:46:02;;;;;;;2.73;2.37;;;20.70;41.60;;;;;;5039412;28;88624;-69
2022/04/16 05:48:30;;;;;;;5.00;2.80;;;20.80;41.80;;;;;;5025839;28;88544;-68
2022/04/16 05:50:58;;;;;;;3.73;2.73;;;20.80;41.90;;;;;;5045816;27;89570;-69
2022/04/16 05:53:27;;;;;;;6.83;2.70;;;20.90;41.90;;;;;;5040359;28;88407;-70
2022/04/16 05:55:55;;;;;;;3.30;2.63;;;20.90;42.00;;;;;;5039159;28;89567;-67
2022/04/16 05:58:23;;;;;;;4.97;2.87;;;20.90;42.10;;;;;;5040297;28;91945;-66
2022/04/16 06:00:51;;;;;;;4.33;2.60;;;20.90;42.20;;;;;;5039061;28;89984;-66
2022/04/16 06:03:20;;;;;;;3.50;2.70;;;20.90;42.40;;;;;;5038464;27;88919;-66
2022/04/16 06:05:48;;;;;;;3.67;2.60;;;20.90;42.50;;;;;;5039577;28;88344;-66
2022/04/16 06:08:16;;;;;;;3.33;2.50;;;20.90;42.70;;;;;;5039370;28;90635;-66
2022/04/16 06:10:45;;;;;;;3.63;2.50;;;21.00;42.90;;;;;;5037703;28;90455;-66
2022/04/16 06:13:13;;;;;;;4.03;2.80;;;21.00;43.00;;;;;;5039298;28;89666;-66
2022/04/16 06:15:42;;;;;;;6.77;2.70;;;21.00;43.00;;;;;;5039490;27;88561;-66
2022/04/16 06:18:10;;;;;;;3.97;2.30;;;21.00;43.10;;;;;;5040244;28;89309;-66
2022/04/16 06:20:38;;;;;;;4.47;3.07;;;21.10;43.20;;;;;;5038891;27;89323;-66
2022/04/16 06:23:06;;;;;;;8.00;3.33;;;21.10;43.20;;;;;;5039391;28;90929;-66
2022/04/16 06:25:34;;;;;;;3.87;2.60;;;21.10;43.20;;;;;;5039534;28;88532;-66
2022/04/16 06:28:03;;;;;;;3.13;2.47;;;21.20;43.20;;;;;;5038857;27;89678;-66
2022/04/16 06:30:31;;;;;;;5.20;3.03;;;21.20;43.20;;;;;;5039107;28;89490;-66
2022/04/16 06:32:59;;;;;;;3.30;2.40;;;21.20;43.20;;;;;;5039304;28;88881;-66
2022/04/16 06:35:27;;;;;;;3.47;3.17;;;21.20;43.20;;;;;;5038144;27;88372;-66
2022/04/16 06:37:55;;;;;;;4.63;2.80;;;21.20;43.20;;;;;;5039050;28;90582;-66
2022/04/16 06:40:23;;;;;;;3.40;2.73;;;21.30;43.30;;;;;;5039388;28;88928;-66
2022/04/16 06:42:52;;;;;;;5.27;3.07;;;21.20;43.20;;;;;;5038817;28;88660;-66
2022/04/16 06:45:21;;;;;;;5.33;2.97;;;21.20;43.30;;;;;;5038774;27;89701;-66
2022/04/16 06:47:49;;;;;;;3.53;2.73;;;21.20;43.30;;;;;;5039662;28;89390;-65
2022/04/16 06:50:17;;;;;;;4.17;2.60;;;21.30;43.40;;;;;;5038689;28;90040;-66
2022/04/16 06:52:46;;;;;;;4.50;3.10;;;21.30;43.40;;;;;;5039181;27;88653;-66
2022/04/16 06:55:14;;;;;;;3.77;2.57;;;21.30;43.40;;;;;;5038941;27;89795;-66
2022/04/16 06:57:42;;;;;;;6.23;2.90;;;21.30;43.40;;;;;;5038509;27;90499;-66
2022/04/16 07:00:11;;;;;;;5.03;2.73;;;21.30;43.40;;;;;;5041404;27;90015;-66
2022/04/16 07:02:41;;;;;;;3.93;2.97;;;21.30;43.40;;;;;;5045647;27;89939;-66
2022/04/16 07:05:10;;;;;;;3.50;3.00;;;21.20;43.30;;;;;;5040907;27;88389;-66
2022/04/16 07:07:37;;;;;;;6.00;3.93;;;21.30;43.40;;;;;;5039263;27;90705;-66
2022/04/16 07:10:07;;;;;;;6.73;3.80;;;21.30;43.40;;;;;;5041901;27;90261;-66
2022/04/16 07:12:35;;;;;;;5.33;3.20;;;21.30;43.40;;;;;;5042746;27;88529;-66
2022/04/16 07:15:03;;;;;;;4.60;3.17;;;21.30;43.40;;;;;;5046929;27;88698;-66
2022/04/16 07:17:30;;;;;;;8.00;4.17;;;21.30;43.40;;;;;;5040741;27;90666;-66
2022/04/16 07:20:00;;;;;;;6.77;3.90;;;21.30;43.40;;;;;;5049079;27;90074;-68
2022/04/16 07:22:28;;;;;;;4.97;3.77;;;21.30;43.40;;;;;;5042392;27;88644;-68
2022/04/16 07:24:56;;;;;;;7.13;3.60;;;21.30;43.40;;;;;;5042083;27;89045;-67
2022/04/16 07:27:24;;;;;;;5.27;3.97;;;21.30;43.40;;;;;;5043253;27;89453;-65
2022/04/16 07:29:58;;;;;;;5.03;3.27;;;21.30;43.40;;;;;;5039607;27;92801;-66
2022/04/16 07:32:26;;;;;;;5.13;3.77;;;21.20;43.40;;;;;;5037837;27;88448;-66
2022/04/16 07:34:54;;;;;;;3.47;2.80;;;21.20;43.50;;;;;;5041216;27;90005;-66
2022/04/16 07:37:23;;;;;;;5.20;3.60;;;21.20;43.60;;;;;;5032825;27;90549;-66
2022/04/16 07:39:51;;;;;;;5.93;3.87;;;21.20;43.60;;;;;;5037920;27;89947;-66
2022/04/16 07:42:20;;;;;;;5.30;3.87;;;21.20;43.50;;;;;;5044561;27;89154;-66
2022/04/16 07:44:48;;;;;;;3.87;3.47;;;21.20;43.50;;;;;;5055805;27;88530;-66
2022/04/16 07:47:16;;;;;;;5.87;3.93;;;21.20;43.60;;;;;;5042702;27;93748;-66
2022/04/16 07:49:44;;;;;;;6.20;4.13;;;21.20;43.60;;;;;;5043201;27;92752;-66
2022/04/16 07:52:12;;;;;;;5.07;3.70;;;21.20;43.60;;;;;;5042717;27;89330;-68
2022/04/16 07:54:41;;;;;;;8.27;4.50;;;21.30;43.70;;;;;;5047373;27;88598;-68
2022/04/16 07:57:10;;;;;;;6.63;4.80;;;21.20;43.60;;;;;;5045794;27;95169;-70
2022/04/16 07:59:38;;;;;;;7.13;4.57;;;21.20;43.50;;;;;;5041175;27;90038;-70
2022/04/16 08:02:06;;;;;;;5.90;4.37;;;21.20;43.50;;;;;;5046160;27;88943;-72
2022/04/16 08:04:34;;;;;;;6.77;4.53;;;21.10;43.50;;;;;;5038498;27;89243;-71
2022/04/16 08:07:02;;;;;;;9.87;3.93;;;21.10;43.50;;;;;;5039652;27;90724;-70
2022/04/16 08:09:30;;;;;;;7.07;3.97;;;21.00;43.60;;;;;;5041258;27;89557;-72
2022/04/16 08:11:59;;;;;;;6.43;3.50;;;21.00;43.80;;;;;;5045458;27;88392;-71
2022/04/16 08:14:27;;;;;;;5.93;3.83;;;21.00;43.90;;;;;;5044752;27;88423;-73
2022/04/16 08:16:56;;;;;;;5.33;3.87;;;21.10;44.10;;;;;;5057337;27;90643;-72
2022/04/16 08:19:24;;;;;;;8.43;4.10;;;21.10;44.20;;;;;;5049470;27;88985;-66
2022/04/16 08:21:53;;;;;;;18.17;4.87;;;21.20;44.20;;;;;;5050328;27;88844;-73
2022/04/16 08:24:38;;;;;;;8.30;4.33;;;21.10;44.30;;;;;;5048142;27;88612;-72
2022/04/16 08:27:08;;;;;;;6.97;4.63;;;21.10;44.30;;;;;;5046552;27;94055;-72
2022/04/16 08:29:37;;;;;;;10.57;4.90;;;21.10;44.30;;;;;;5044216;27;89656;-66
2022/04/16 08:32:07;;;;;;;10.50;4.27;;;21.10;44.30;;;;;;5039544;27;88371;-68
2022/04/16 08:34:49;;;;;;;8.63;5.27;;;21.10;44.40;;;;;;5042005;27;88680;-68
2022/04/16 08:37:17;;;;;;;11.90;5.73;;;21.10;44.40;;;;;;5040490;27;90908;-68
2022/04/16 08:39:46;;;;;;;16.47;7.07;;;21.20;44.70;;;;;;5042879;27;89370;-69
2022/04/16 08:42:15;;;;;;;14.43;6.73;;;21.20;44.90;;;;;;5047210;27;89804;-68
2022/04/16 08:44:43;;;;;;;16.73;7.57;;;21.30;45.20;;;;;;5045387;27;88550;-68
2022/04/16 08:47:11;;;;;;;15.20;6.80;;;21.40;45.30;;;;;;5038797;27;90651;-68
2022/04/16 08:49:41;;;;;;;11.00;6.87;;;21.40;45.50;;;;;;5037068;28;89524;-68
2022/04/16 08:52:09;;;;;;;12.30;6.53;;;21.50;45.60;;;;;;5037759;27;88466;-67
2022/04/16 08:54:38;;;;;;;13.97;6.40;;;21.50;45.60;;;;;;5039268;27;88637;-68
2022/04/16 08:57:06;;;;;;;10.30;5.77;;;21.50;45.60;;;;;;5037077;28;90697;-68
2022/04/16 08:59:36;;;;;;;8.17;6.03;;;21.50;45.70;;;;;;5044519;27;89057;-67
2022/04/16 09:02:04;;;;;;;9.83;5.60;;;21.50;45.70;;;;;;5045260;27;88580;-68
2022/04/16 09:04:32;;;;;;;13.03;5.83;;;21.50;45.60;;;;;;5046871;27;88461;-70
2022/04/16 09:07:01;;;;;;;9.47;4.93;;;21.50;45.60;;;;;;5039576;27;90492;-70
2022/04/16 09:09:29;;;;;;;9.33;4.90;;;21.50;45.60;;;;;;5043282;27;90021;-70
2022/04/16 09:11:57;;;;;;;7.17;4.03;;;21.50;45.60;;;;;;5036019;28;92222;-70
2022/04/16 09:14:34;;;;;;;6.90;4.17;;;21.50;45.60;;;;;;5037255;27;88415;-69
2022/04/16 09:17:08;;;;;;;9.53;4.67;;;21.50;45.60;;;;;;5038492;27;90824;-70
2022/04/16 09:19:36;;;;;;;8.43;4.53;;;21.50;45.50;;;;;;5038485;27;90148;-68
2022/04/16 09:22:04;;;;;;;7.10;4.67;;;21.50;45.50;;;;;;5040366;27;89003;-70
2022/04/16 09:24:45;;;;;;;8.97;4.17;;;21.40;45.30;;;;;;5036715;28;88363;-70
2022/04/16 09:27:13;;;;;;;6.40;4.60;;;21.40;45.90;;;;;;5035286;28;91708;-70
2022/04/16 09:29:41;;;;;;;5.73;4.13;;;21.30;45.10;;;;;;5039571;27;89563;-70
2022/04/16 09:32:10;;;;;;;5.93;4.20;;;21.30;45.70;;;;;;5043587;27;91519;-69
2022/04/16 09:34:38;;;;;;;9.20;4.47;;;21.30;45.10;;;;;;5046820;27;89953;-70
2022/04/16 09:37:17;;;;;;;7.10;4.57;;;21.20;45.00;;;;;;5053418;27;89325;-70
2022/04/16 09:39:45;;;;;;;6.70;4.23;;;21.10;44.90;;;;;;5047101;27;90041;-70
2022/04/16 09:42:13;;;;;;;5.53;3.67;;;21.10;44.90;;;;;;5047830;27;91218;-70
2022/04/16 09:44:43;;;;;;;7.47;4.37;;;21.10;45.00;;;;;;5042643;27;88773;-70
2022/04/16 09:47:12;;;;;;;5.83;3.80;;;21.10;45.00;;;;;;5036901;27;89265;-70
2022/04/16 09:49:40;;;;;;;6.33;3.83;;;21.00;44.70;;;;;;5037920;27;90172;-70
2022/04/16 09:52:08;;;;;;;5.60;4.37;;;20.90;44.70;;;;;;5044038;27;90268;-70
2022/04/16 09:54:36;;;;;;;7.93;3.10;;;20.90;44.70;;;;;;5049159;27;89021;-69
2022/04/16 09:57:05;;;;;;;5.57;3.80;;;20.90;44.80;;;;;;5037549;28;91772;-70
2022/04/16 09:59:35;;;;;;;9.83;3.77;;;21.00;44.80;;;;;;5036177;28;93038;-70
2022/04/16 10:02:04;;;;;;;5.97;3.97;;;21.10;44.70;;;;;;5034495;28;88949;-70
2022/04/16 10:04:33;;;;;;;4.43;3.20;;;21.10;44.70;;;;;;5040028;27;88560;-70
2022/04/16 10:07:01;;;;;;;7.20;3.40;;;21.10;44.50;;;;;;5039451;27;90702;-70
2022/04/16 10:09:30;;;;;;;4.43;2.43;;;21.10;44.60;;;;;;5038541;28;90426;-70
2022/04/16 10:14:46;;;;;;;5.43;3.13;;;21.10;44.40;;;;;;5038456;28;88453;-70
2022/04/16 10:17:25;;;;;;;5.03;2.60;;;21.10;44.40;;;;;;5039610;27;90803;-69
2022/04/16 10:19:55;;;;;;;3.87;2.93;;;21.10;44.40;;;;;;5037705;28;90069;-70
2022/04/16 10:22:24;;;;;;;5.13;3.23;;;21.20;44.40;;;;;;5039215;27;88604;-69
2022/04/16 10:24:53;;;;;;;3.67;2.57;;;21.30;44.50;;;;;;5039500;28;88640;-70
2022/04/16 10:27:26;;;;;;;5.03;3.23;;;21.30;44.40;;;;;;5034712;27;89566;-70
2022/04/16 10:29:54;;;;;;;5.93;3.53;;;21.20;44.10;;;;;;5025800;28;90122;-70
2022/04/16 10:32:22;;;;;;;4.90;3.40;;;21.10;44.10;;;;;;5042110;27;88411;-70
2022/04/16 10:34:50;;;;;;;4.17;2.90;;;21.00;44.00;;;;;;5040627;27;88622;-70
2022/04/16 10:37:22;;;;;;;4.90;3.10;;;20.90;44.10;;;;;;5041561;28;92700;-70
2022/04/16 10:39:53;;;;;;;6.50;2.77;;;21.00;44.10;;;;;;5041129;28;90071;-70
2022/04/16 10:42:31;;;;;;;3.67;2.87;;;21.00;44.00;;;;;;5041121;27;88991;-70
2022/04/16 10:45:20;;;;;;;5.40;2.87;;;21.00;43.90;;;;;;5041552;27;88584;-70
2022/04/16 10:47:50;;;;;;;4.00;2.83;;;21.10;43.90;;;;;;5042344;27;89271;-70
2022/04/16 10:50:19;;;;;;;4.30;3.17;;;21.10;43.90;;;;;;5041379;28;90105;-70
2022/04/16 10:52:56;;;;;;;4.60;3.10;;;21.10;43.90;;;;;;5042589;27;88865;-70
2022/04/16 10:55:30;;;;;;;5.30;3.30;;;21.00;43.70;;;;;;5043298;28;88509;-70
2022/04/16 10:58:00;;;;;;;4.53;3.03;;;21.00;43.70;;;;;;5042286;27;90586;-70
2022/04/16 11:00:40;;;;;;;4.63;2.63;;;21.00;43.80;;;;;;5042197;28;90045;-70
2022/04/16 11:03:09;;;;;;;5.87;3.40;;;21.00;43.80;;;;;;5043049;28;88376;-70
2022/04/16 11:05:40;;;;;;;3.23;2.40;;;21.10;43.70;;;;;;5049823;27;88607;-70
2022/04/16 11:08:11;;;;;;;4.23;2.30;;;21.20;43.80;;;;;;5051302;27;90867;-70
2022/04/16 11:10:39;;;;;;;3.03;1.80;;;21.20;43.70;;;;;;5051655;27;90062;-69
2022/04/16 11:13:07;;;;;;;2.60;1.73;;;21.30;43.70;;;;;;5052659;27;89752;-70
2022/04/16 11:15:35;;;;;;;3.77;2.60;;;21.40;43.80;;;;;;5050321;27;88573;-71
2022/04/16 11:18:04;;;;;;;6.07;2.80;;;21.40;43.70;;;;;;5038363;27;89675;-70
2022/04/16 11:20:32;;;;;;;3.27;2.50;;;21.40;43.60;;;;;;5037975;27;90268;-70
2022/04/16 11:23:01;;;;;;;2.80;2.23;;;21.40;43.60;;;;;;5039419;27;89220;-69
2022/04/16 11:34:14;;;;;;;3.50;2.57;;;21.50;43.60;;;;;;5039569;27;88593;-70
2022/04/16 11:34:20;;;;;;;3.20;2.40;;;21.50;43.40;;;;;;5038407;27;88404;-69
2022/04/16 11:36:50;;;;;;;4.63;2.83;;;21.50;43.40;;;;;;5040316;27;88590;-70
2022/04/16 11:39:19;;;;;;;3.63;2.57;;;21.30;43.20;;;;;;5037489;27;88568;-70
2022/04/16 11:41:50;;;;;;;3.73;2.33;;;21.30;43.30;;;;;;5041092;27;89065;-70
2022/04/16 11:44:28;;;;;;;6.10;2.67;;;21.20;43.20;;;;;;5039761;27;88543;-70
2022/04/16 11:46:56;;;;;;;2.70;2.00;;;21.20;43.20;;;;;;5041107;27;89123;-70
2022/04/16 11:49:24;;;;;;;3.27;2.00;;;21.20;43.20;;;;;;5039151;27;93348;-70
2022/04/16 11:51:52;;;;;;;3.13;2.03;;;21.20;43.20;;;;;;5040248;28;92199;-69
2022/04/16 11:54:28;;;;;;;3.73;2.33;;;21.20;43.20;;;;;;5042944;27;88569;-71
2022/04/16 11:56:57;;;;;;;3.30;1.97;;;21.30;43.30;;;;;;5046964;27;88563;-72
2022/04/16 11:59:25;;;;;;;2.30;2.10;;;21.40;43.30;;;;;;5039152;27;89569;-71
2022/04/16 12:02:00;;;;;;;2.53;1.80;;;21.50;43.30;;;;;;5036787;28;88953;-71
2022/04/16 12:04:36;;;;;;;3.27;2.30;;;21.50;43.20;;;;;;5035486;28;89303;-71
2022/04/16 12:07:04;;;;;;;2.90;1.90;;;21.50;43.20;;;;;;5039355;27;89425;-71
2022/04/16 12:09:33;;;;;;;2.30;1.80;;;21.50;43.00;;;;;;5038087;27;90173;-71
2022/04/16 12:12:05;;;;;;;3.33;2.50;;;21.30;42.90;;;;;;5040827;27;90059;-71
2022/04/16 12:14:33;;;;;;;2.70;2.03;;;21.30;42.80;;;;;;5042123;27;89046;-72
2022/04/16 12:17:01;;;;;;;2.50;2.27;;;21.30;42.90;;;;;;5039606;27;88448;-71
2022/04/16 12:19:34;;;;;;;2.70;2.03;;;21.30;42.90;;;;;;5035777;27;90564;-72
2022/04/16 12:22:04;;;;;;;2.00;1.80;;;21.40;43.00;;;;;;5042137;27;88832;-72
2022/04/16 12:24:32;;;;;;;1.77;1.53;;;21.50;43.00;;;;;;5039355;27;89198;-71
2022/04/16 12:27:02;;;;;;;2.70;1.60;;;21.60;43.00;;;;;;5044426;27;88466;-71
2022/04/16 12:29:30;;;;;;;3.03;2.17;;;21.60;43.00;;;;;;5047567;27;89685;-71
2022/04/16 12:31:58;;;;;;;3.13;1.90;;;21.70;43.00;;;;;;5036139;27;90953;-71
2022/04/16 12:34:26;;;;;;;4.20;1.40;;;21.70;42.90;;;;;;5039757;27;91591;-71
2022/04/16 12:36:54;;;;;;;1.93;1.73;;;21.70;42.90;;;;;;5046788;27;88643;-73
2022/04/16 12:39:24;;;;;;;3.40;1.80;;;21.70;42.80;;;;;;5041943;27;92465;-71
2022/04/16 12:41:52;;;;;;;1.90;1.63;;;21.70;42.90;;;;;;5037864;27;89023;-72
2022/04/16 12:44:21;;;;;;;2.63;1.43;;;21.80;42.90;;;;;;5039216;27;91071;-71
2022/04/16 12:46:49;;;;;;;2.27;1.47;;;21.70;42.70;;;;;;5033897;27;88287;-71
2022/04/16 12:49:19;;;;;;;1.60;1.40;;;21.70;42.60;;;;;;5035655;28;89852;-71
2022/04/16 12:51:48;;;;;;;1.90;1.67;;;21.70;42.60;;;;;;5030179;28;90173;-71
2022/04/16 12:54:16;;;;;;;2.63;1.80;;;21.70;42.50;;;;;;5038071;27;90178;-72
2022/04/16 12:56:46;;;;;;;1.97;1.47;;;21.70;42.50;;;;;;5040980;27;88515;-71
2022/04/16 12:59:15;;;;;;;1.70;1.47;;;21.70;42.40;;;;;;5048114;27;90739;-72
2022/04/16 13:01:44;;;;;;;2.57;1.67;;;21.70;42.30;;;;;;5044161;27;90126;-71
2022/04/16 13:04:12;;;;;;;1.73;1.43;;;21.60;42.10;;;;;;5040049;27;89211;-72
2022/04/16 13:06:40;;;;;;;2.83;1.37;;;21.70;42.10;;;;;;5048181;27;88363;-72
2022/04/16 13:09:08;;;;;;;2.97;2.00;;;21.70;42.10;;;;;;5043014;27;90491;-71
2022/04/16 13:11:38;;;;;;;1.93;1.50;;;21.80;42.10;;;;;;5048049;27;89342;-72
2022/04/16 13:14:07;;;;;;;3.57;1.90;;;21.80;42.00;;;;;;5041480;27;88489;-72
2022/04/16 13:16:34;;;;;;;2.83;1.50;;;21.80;42.00;;;;;;5044040;27;88515;-72